Terminal Aerodrome Forecast
Issued by NWS

Home | Current Version | Previous Version | Text Only | Print | Product List | Glossary On
Versions: 1 2 3 4 5 6 7 8 9 10 11 12 13 14 15 16 17 18 19 20 21 22 23 24 25 26 27 28 29 30 31 32 33 34 35 36 37 38 39 40 41 42 43 44 45 46 47 48 49
000
FTUS43 KMKX 222320
TAFUES
TAF
KUES 222320Z 2300/2324 22005KT 2SM -DZ BR OVC006 WS020/23035KT
     FM230300 20005KT 2SM -DZ BR OVC004 WS020/23035KT
     FM230600 20008KT 2SM -DZ BR OVC003 WS020/23035KT
     FM231500 19010G21KT 1 1/2SM -SHRA BR OVC009
     FM232100 16009KT 1/2SM RA FG OVC003
     FM232300 15008KT 3/4SM RA BR OVC003=

USA.gov is the U.S. government's official web portal to all federal, state and local government web resources and services.